05:37
Airports
History
Links
Donate
Help keep this website running!
PayPal
Bitcoin
This page is community maintained. The information is intended for PC simulator navigation or reference.
Always use approved charts for navigation.
77K
Bonne Terre Municipal
Bonne Terre Municipal (77K)
Bonne Terre, Missouri, United States (63628)
(U)
Lat/Lng:37° 55' 0.18" N / 90° 35' 0.46" W
37.916717 / -90.58346
Elevation:910'ft / 277mMSL
ID / ICAO:77K
Runways:1
Longest:14-32
Asphalt 853m / 2,799ft
Nearby Weather04:56 GMT 2017-09-20
Nearby weather at KFAM, Farmington Rgnl located 13.7 nautical miles from 77K
Altimeter: 29.92
Visibility: 10.0 statute miles
Wind: 3 knots (from VRB°)
Temp: 23°c / 73°f
Humidity: 78.2%

METAR: KFAM 200456Z AUTO VRB03KT 10SM CLR 23/19 A2992 RMK AO2 SLP118 T02280194

(Powered by phpweather)
Nearby VORs <50NM
Nearby NDBs
Runway 14 / 32
Dimensions:853 x 14.9m 2799' x 49'ft
Surface:Asphalt
Runway 14 [A]Runway 32 [B]
Heading:142°TH 322°TH
Lat:
Lng:
37° 55' 11.08"N
90° 35' 11.24"W
37° 54' 49.29"N
90° 34' 49.67"W
User Notes and Comments
37° 55' 0.18" N / 90° 35' 0.46" W
Distance To
Airport ID:
Nearby Airports
(U) Washington County 8.1 NM
8WC W 276°
(U) Bismarck Memorial 11.1 NM
H57 S 189°
(R) Lakeside 12.0 NM
MU65 SSE 147°
(U) Farmington Rgnl 13.7 NM
KFAM ( WX ) SE 141°
4 Short-N-Ruff 14.0 NM
0MO2 SW 230°
(R) Dove Airstrip 17.1 NM
MO81 S 185°
(R) Aire Parque 17.8 NM
42MO NE 36°
VFR Chart
Flight Planning at SkyVector.com